Skip Navigation

Christman Field Latest Observations

Switch to metric unitsOther observation timesWeekly graphs

Date Time
MST
Temp
°F
RH
%
DewPt
°F
Wind
mph
Dir
°
Gust
mph
Dir
°
Press
in Hg
Solar
W/m^2
Prec
in
2021-01-17 08:15 26.7 84.8 22.7 1.1 333 2.5 333 32.271 62.2 0.00
2021-01-17 08:10 26.4 85.5 22.6 0.2 333 1.1 333 32.264 51.0 0.00
2021-01-17 08:05 26.1 86.4 22.6 0.1 333 1.0 333 32.282 32.1 0.00
2021-01-17 08:00 25.9 87.0 22.6 0.1 344 0.7 344 32.302 21.3 0.00
2021-01-17 07:55 25.6 87.6 22.4 0.0 345 0.0 345 32.270 19.6 0.00
2021-01-17 07:50 25.4 87.7 22.3 2.4 345 4.4 339 32.261 18.6 0.00
2021-01-17 07:45 25.4 87.8 22.3 1.8 336 4.3 336 32.277 15.8 0.00
2021-01-17 07:40 25.5 87.1 22.2 3.6 21 4.7 332 32.267 14.1 0.00
2021-01-17 07:35 25.5 87.3 22.2 2.4 332 3.9 315 32.280 7.9 0.00
2021-01-17 07:30 25.5 86.8 22.1 3.0 315 4.2 315 32.268 5.7 0.00
2021-01-17 07:25 25.6 87.5 22.4 0.3 322 0.8 322 32.271 3.8 0.00
2021-01-17 07:20 25.6 87.6 22.4 0.0 322 0.5 322 32.267 3.4 0.00
2021-01-17 07:15 25.6 85.9 22.0 0.1 322 0.8 322 32.221 1.4 0.00
2021-01-17 07:10 25.4 86.4 21.9 0.3 322 1.4 322 32.218 0.5 0.00
2021-01-17 07:05 25.9 85.7 22.3 1.1 322 2.9 330 32.241 0.2 0.00
2021-01-17 07:00 26.0 84.2 21.9 0.2 148 0.8 148 32.250 0.0 0.00
2021-01-17 06:55 25.8 84.9 21.9 1.5 148 3.1 133 32.234 0.0 0.00
2021-01-17 06:50 25.6 86.2 22.0 0.7 278 2.1 278 32.221 0.0 0.00
2021-01-17 06:45 25.5 86.4 22.0 1.2 279 2.5 279 32.225 0.0 0.00
2021-01-17 06:40 25.2 87.1 21.9 0.6 279 1.9 279 32.228 0.0 0.00
2021-01-17 06:35 25.1 87.6 21.9 1.2 279 3.2 279 32.219 0.0 0.00
2021-01-17 06:30 25.1 86.7 21.7 2.8 340 4.6 345 32.220 0.0 0.00
2021-01-17 06:25 25.0 87.6 21.8 3.1 338 4.5 338 32.228 0.0 0.00
2021-01-17 06:20 25.1 87.8 22.0 1.6 302 3.7 302 32.241 0.0 0.00
2021-01-17 06:15 25.1 87.8 22.0 1.5 302 2.1 302 32.249 0.0 0.00
2021-01-17 06:10 25.1 87.5 21.9 1.3 303 2.5 303 32.266 0.0 0.00
2021-01-17 06:05 25.1 87.7 21.9 1.9 303 2.7 303 32.289 0.0 0.00
2021-01-17 06:00 25.0 87.8 21.9 0.7 302 2.8 302 32.275 0.0 0.00
2021-01-17 05:55 24.9 88.2 21.9 1.5 302 2.5 302 32.277 0.0 0.00
2021-01-17 05:50 24.9 87.9 21.8 3.0 302 4.9 302 32.292 0.0 0.00